createdAt,value
2023-02-15T00:00:20.287Z,-16584.09
2023-02-15T00:01:22.913Z,-16266.34
2023-02-15T00:02:25.674Z,-16265.13
2023-02-15T00:03:28.366Z,-16264.50
2023-02-15T00:04:47.459Z,-16264.50
2023-02-15T00:05:50.085Z,-16264.34
2023-02-15T00:06:52.608Z,-16264.34
2023-02-15T00:07:55.130Z,-16263.28
2023-02-15T00:08:58.447Z,-16579.91
2023-02-15T00:10:01.147Z,-16579.91
2023-02-15T00:11:12.303Z,-17216.00
2023-02-15T00:12:16.247Z,-16899.84
2023-02-15T00:13:18.851Z,-16584.56
2023-02-15T00:14:25.094Z,-16902.53
2023-02-15T00:15:27.650Z,-16269.41
2023-02-15T00:16:30.248Z,-16270.63
2023-02-15T00:17:32.826Z,-16272.19
2023-02-15T00:18:35.476Z,-16276.78
2023-02-15T00:19:38.077Z,-16280.00
2023-02-15T00:20:40.618Z,-15967.59
2023-02-15T00:21:44.098Z,-15970.47
2023-02-15T00:22:46.741Z,-15656.94
2023-02-15T00:23:49.376Z,-15659.03
2023-02-15T00:24:51.898Z,-15975.59
2023-02-15T00:26:06.786Z,-16612.16
2023-02-15T00:27:10.361Z,-15344.19
2023-02-15T00:28:12.904Z,-15029.09
2023-02-15T00:29:17.582Z,-15030.38
2023-02-15T00:30:20.340Z,-14395.03
2023-02-15T00:31:23.224Z,-14393.81
2023-02-15T00:32:25.869Z,-14392.16
2023-02-15T00:33:28.502Z,-14391.34
2023-02-15T00:34:31.264Z,-14389.94
2023-02-15T00:35:34.024Z,-14389.41
2023-02-15T00:36:36.545Z,-14388.84
2023-02-15T00:37:39.186Z,-14388.72
2023-02-15T00:38:41.827Z,-14071.91
2023-02-15T00:39:44.468Z,-14071.50
2023-02-15T00:40:53.714Z,-15023.22
2023-02-15T00:41:56.356Z,-14388.03
2023-02-15T00:42:59.737Z,-14387.19
2023-02-15T00:44:02.475Z,-14386.66
2023-02-15T00:45:05.959Z,-14386.38
2023-02-15T00:46:08.547Z,-14704.09
2023-02-15T00:47:11.112Z,-14704.38
2023-02-15T00:48:13.653Z,-14387.47
2023-02-15T00:49:16.155Z,-14387.19
2023-02-15T00:50:18.678Z,-14387.47
2023-02-15T00:51:22.397Z,-14387.19
2023-02-15T00:52:25.042Z,-14386.78
2023-02-15T00:53:28.161Z,-14703.25
2023-02-15T00:54:30.685Z,-14385.81
2023-02-15T00:55:33.450Z,-14386.09
2023-02-15T00:56:36.093Z,-14703.53
2023-02-15T00:57:39.928Z,-14704.38
2023-02-15T00:58:42.687Z,-14387.75
2023-02-15T00:59:45.329Z,-14071.22
2023-02-15T01:00:49.295Z,-14388.56
2023-02-15T01:01:52.176Z,-14071.09
2023-02-15T01:02:55.655Z,-13754.00
2023-02-15T01:03:58.330Z,-14073.66
2023-02-15T01:05:00.820Z,-14074.88
2023-02-15T01:06:04.778Z,-14712.22
2023-02-15T01:07:07.562Z,-14395.19
2023-02-15T01:08:10.544Z,-14396.28
2023-02-15T01:09:15.008Z,-14077.03
2023-02-15T01:10:18.996Z,-14393.25
2023-02-15T01:11:24.470Z,-15027.81
2023-02-15T01:12:27.859Z,-14391.47
2023-02-15T01:13:31.077Z,-14389.69
2023-02-15T01:14:34.641Z,-14388.31
2023-02-15T01:15:39.559Z,-14703.25
2023-02-15T01:16:44.312Z,-14701.56
2023-02-15T01:17:52.578Z,-14700.72
2023-02-15T01:18:56.242Z,-15015.78
2023-02-15T01:20:00.536Z,-15014.50
2023-02-15T01:21:15.290Z,-15648.66
2023-02-15T01:22:20.830Z,-15331.97
2023-02-15T01:23:26.955Z,-15331.38
2023-02-15T01:24:30.986Z,-15013.81
2023-02-15T01:25:36.179Z,-15647.47
2023-02-15T01:26:40.484Z,-15330.78
2023-02-15T01:27:44.204Z,-15013.66
2023-02-15T01:28:49.342Z,-15013.22
2023-02-15T01:29:53.424Z,-15012.38
2023-02-15T01:30:58.830Z,-15012.66
2023-02-15T01:32:02.981Z,-14694.25
2023-02-15T01:33:07.260Z,-14693.97
2023-02-15T01:34:11.502Z,-14693.41
2023-02-15T01:35:15.515Z,-14691.75
2023-02-15T01:36:19.143Z,-14691.47
2023-02-15T01:37:23.707Z,-14690.63
2023-02-15T01:38:26.818Z,-14689.63
2023-02-15T01:39:30.181Z,-14690.06
2023-02-15T01:40:34.889Z,-15006.66
2023-02-15T01:41:38.471Z,-15326.44
2023-02-15T01:42:43.158Z,-15327.75
2023-02-15T01:43:59.732Z,-15643.03
2023-02-15T01:45:17.834Z,-15957.94
2023-02-15T01:46:26.626Z,-15639.31
2023-02-15T01:48:08.475Z,-15638.59
2023-02-15T01:49:18.324Z,-15635.91
2023-02-15T01:50:32.214Z,-15633.25
2023-02-15T01:51:38.982Z,-15632.66
2023-02-15T01:52:56.492Z,-15947.84
2023-02-15T01:54:29.038Z,-15946.66
2023-02-15T01:55:48.428Z,-16263.28
2023-02-15T01:56:52.278Z,-15629.09
2023-02-15T01:57:55.937Z,-15311.59
2023-02-15T01:59:04.279Z,-15945.13
2023-02-15T02:00:10.172Z,-15627.34
2023-02-15T02:01:16.521Z,-15310.72
2023-02-15T02:02:26.117Z,-15627.03
2023-02-15T02:03:38.859Z,-15943.63
2023-02-15T02:04:49.833Z,-15942.59
2023-02-15T02:05:55.051Z,-14992.06
2023-02-15T02:07:00.593Z,-15624.53
2023-02-15T02:08:04.658Z,-14990.38
2023-02-15T02:09:08.496Z,-15306.34
2023-02-15T02:10:18.347Z,-15305.75
2023-02-15T02:11:22.225Z,-14987.50
2023-02-15T02:12:27.381Z,-15303.44
2023-02-15T02:13:30.841Z,-14985.78
2023-02-15T02:14:34.425Z,-14985.78
2023-02-15T02:15:42.548Z,-14986.06
2023-02-15T02:17:18.233Z,-15620.53
2023-02-15T02:18:57.970Z,-15620.53
2023-02-15T02:20:36.991Z,-15303.44
2023-02-15T02:22:07.704Z,-15618.75
2023-02-15T02:23:27.339Z,-14669.28
2023-02-15T02:25:09.041Z,-15618.75
2023-02-15T02:26:35.071Z,-15300.81
2023-02-15T02:28:13.498Z,-15299.94
2023-02-15T02:29:19.475Z,-15298.78
2023-02-15T02:30:35.879Z,-14981.94
2023-02-15T02:32:03.060Z,-15298.50
2023-02-15T02:33:15.637Z,-14981.78
2023-02-15T02:34:42.913Z,-14982.38
2023-02-15T02:36:20.365Z,-14981.50
2023-02-15T02:37:53.247Z,-15297.47
2023-02-15T02:39:15.075Z,-14981.34
2023-02-15T02:40:45.667Z,-14983.78
2023-02-15T02:42:07.669Z,-14984.94
2023-02-15T02:43:46.149Z,-14352.50
2023-02-15T02:44:54.987Z,-14035.16
2023-02-15T02:46:06.795Z,-14034.34
2023-02-15T02:47:32.069Z,-14350.31
2023-02-15T02:48:35.434Z,-13402.09
2023-02-15T02:49:40.592Z,-13402.22
2023-02-15T02:50:43.235Z,-12452.38
2023-02-15T02:51:45.752Z,-12451.41
2023-02-15T02:52:52.113Z,-13084.00
2023-02-15T02:53:58.237Z,-12766.47
2023-02-15T02:55:03.168Z,-12449.22
2023-02-15T02:56:20.447Z,-13081.97
2023-02-15T02:57:25.255Z,-12764.97
2023-02-15T02:58:44.441Z,-13397.81
2023-02-15T02:59:49.969Z,-12765.84
2023-02-15T03:00:57.771Z,-13083.25
2023-02-15T03:02:14.067Z,-13083.25
2023-02-15T03:03:45.450Z,-13084.00
2023-02-15T03:04:59.752Z,-12450.78
2023-02-15T03:06:07.631Z,-12134.59
2023-02-15T03:07:15.934Z,-12134.34
2023-02-15T03:08:23.219Z,-11817.41
2023-02-15T03:09:51.309Z,-12135.53
2023-02-15T03:10:58.039Z,-11502.53
2023-02-15T03:12:00.786Z,-10553.47
2023-02-15T03:13:03.921Z,-10871.28
2023-02-15T03:14:07.871Z,-10237.47
2023-02-15T03:15:21.313Z,-11189.09
2023-02-15T03:16:28.204Z,-9604.94
2023-02-15T03:17:34.157Z,-10238.09
2023-02-15T03:18:46.161Z,-10237.38
2023-02-15T03:19:51.562Z,-9602.78
2023-02-15T03:20:56.484Z,-8651.72
2023-02-15T03:22:12.573Z,-10234.38
2023-02-15T03:23:22.051Z,-10233.53
2023-02-15T03:24:29.609Z,-10232.91
2023-02-15T03:25:39.453Z,-10549.97
2023-02-15T03:26:47.256Z,-10550.28
2023-02-15T03:28:04.897Z,-11183.19
2023-02-15T03:29:09.577Z,-10232.91
2023-02-15T03:30:16.245Z,-9915.97
2023-02-15T03:31:22.502Z,-10232.59
2023-02-15T03:32:29.868Z,-10549.44
2023-02-15T03:33:34.549Z,-10233.53
2023-02-15T03:34:37.789Z,-9284.28
2023-02-15T03:35:58.318Z,-10234.25
2023-02-15T03:37:25.073Z,-10233.53
2023-02-15T03:38:36.356Z,-9915.78
2023-02-15T03:39:52.916Z,-8648.81
2023-02-15T03:41:12.977Z,-9914.44
2023-02-15T03:42:24.241Z,-10230.41
2023-02-15T03:43:47.760Z,-10545.91
2023-02-15T03:45:00.607Z,-10544.84
2023-02-15T03:46:33.428Z,-10544.00
2023-02-15T03:47:44.413Z,-10543.69
2023-02-15T03:49:04.933Z,-10543.91
2023-02-15T03:50:33.497Z,-10543.25
2023-02-15T03:51:41.904Z,-10543.56
2023-02-15T03:52:45.378Z,-9593.78
2023-02-15T03:53:50.305Z,-10226.69
2023-02-15T03:54:53.898Z,-9593.91
2023-02-15T03:55:57.022Z,-9593.69
2023-02-15T03:57:18.277Z,-9277.47
2023-02-15T03:58:39.511Z,-9278.72
2023-02-15T04:00:00.649Z,-9280.44
2023-02-15T04:01:41.430Z,-10547.84
2023-02-15T04:02:49.999Z,-10232.09
2023-02-15T04:04:13.234Z,-9915.47
2023-02-15T04:05:15.877Z,-8332.13
2023-02-15T04:06:18.447Z,-8015.41
2023-02-15T04:07:20.966Z,-8015.41
2023-02-15T04:08:43.649Z,-8016.19
2023-02-15T04:10:04.651Z,-7700.19
2023-02-15T04:11:07.287Z,-7701.00
2023-02-15T04:12:10.136Z,-7385.00
2023-02-15T04:13:12.691Z,-6751.84
2023-02-15T04:14:33.891Z,-6434.94
2023-02-15T04:15:55.066Z,-6118.28
2023-02-15T04:16:57.655Z,-6118.38
2023-02-15T04:18:03.217Z,-6118.84
2023-02-15T04:19:24.696Z,-5802.41
2023-02-15T04:20:45.691Z,-5485.53
2023-02-15T04:22:06.421Z,-7387.56
2023-02-15T04:23:27.424Z,-5486.19
2023-02-15T04:24:48.694Z,-5170.22
2023-02-15T04:25:51.433Z,-4535.53
2023-02-15T04:26:54.118Z,-4535.00
2023-02-15T04:27:56.737Z,-4217.53
2023-02-15T04:28:59.278Z,-4217.63
2023-02-15T04:30:02.115Z,-3583.50
2023-02-15T04:31:04.933Z,-3265.97
2023-02-15T04:32:07.868Z,-2948.91
2023-02-15T04:33:10.548Z,-2948.88
2023-02-15T04:34:13.182Z,-2948.91
2023-02-15T04:35:16.416Z,-2631.66
2023-02-15T04:36:18.940Z,-2632.13
2023-02-15T04:37:21.459Z,-2314.88
2023-02-15T04:38:24.231Z,-2315.00
2023-02-15T04:39:26.869Z,-2315.34
2023-02-15T04:40:29.991Z,-2632.81
2023-02-15T04:41:33.104Z,-1998.31
2023-02-15T04:42:35.743Z,-1680.97
2023-02-15T04:43:38.263Z,-1680.97
2023-02-15T04:44:40.784Z,-1363.47
2023-02-15T04:45:51.570Z,-3583.88
2023-02-15T04:46:53.983Z,-3901.59
2023-02-15T04:47:56.766Z,-1998.84
2023-02-15T04:48:59.508Z,-1046.91
2023-02-15T04:50:02.044Z,-412.00
2023-02-15T04:51:08.642Z,-2315.66
2023-02-15T04:52:11.153Z,-412.03
2023-02-15T04:53:13.796Z,222.88
2023-02-15T04:54:16.310Z,540.28
2023-02-15T04:55:18.838Z,540.34
2023-02-15T04:56:22.087Z,540.31
2023-02-15T04:57:24.720Z,540.31
2023-02-15T04:58:27.245Z,540.31
2023-02-15T04:59:29.653Z,222.84
2023-02-15T05:00:32.286Z,222.69
2023-02-15T05:01:35.052Z,1175.06
2023-02-15T05:02:37.686Z,1175.06
2023-02-15T05:03:40.452Z,1492.56
2023-02-15T05:04:42.971Z,1492.59
2023-02-15T05:05:45.618Z,1810.09
2023-02-15T05:06:48.253Z,1492.69
2023-02-15T05:07:50.771Z,1810.13
2023-02-15T05:08:53.413Z,1492.75
2023-02-15T05:09:56.299Z,1492.75
2023-02-15T05:10:59.426Z,540.63
2023-02-15T05:12:02.428Z,1175.31
2023-02-15T05:13:05.192Z,1492.69
2023-02-15T05:14:07.943Z,1234.72
2023-02-15T05:15:10.825Z,857.53
2023-02-15T05:16:13.905Z,1809.97
2023-02-15T05:17:16.948Z,1943.94
2023-02-15T05:18:21.750Z,1492.44
2023-02-15T05:19:25.717Z,3231.53
2023-02-15T05:20:29.081Z,3214.13
2023-02-15T05:21:33.407Z,2762.56
2023-02-15T05:22:36.658Z,3740.06
2023-02-15T05:23:39.771Z,3243.81
2023-02-15T05:25:01.361Z,3343.03
2023-02-15T05:26:23.563Z,3903.84
2023-02-15T05:27:45.051Z,3859.13
2023-02-15T05:28:48.288Z,3819.31
2023-02-15T05:29:51.627Z,4057.41
2023-02-15T05:31:13.606Z,857.88
2023-02-15T05:32:17.321Z,3382.75
2023-02-15T05:33:21.429Z,3968.38
2023-02-15T05:34:24.539Z,4151.94
2023-02-15T05:35:27.670Z,4355.31
2023-02-15T05:36:30.906Z,4047.44
2023-02-15T05:37:34.025Z,3853.84
2023-02-15T05:38:40.867Z,2950.94
2023-02-15T05:39:44.113Z,3521.34
2023-02-15T05:40:49.178Z,3218.72
2023-02-15T05:41:53.114Z,3412.06
2023-02-15T05:42:57.196Z,3268.22
2023-02-15T05:44:00.343Z,2911.09
2023-02-15T05:45:05.150Z,2588.75
2023-02-15T05:46:08.642Z,1939.25
2023-02-15T05:47:11.737Z,2444.97
2023-02-15T05:48:15.325Z,2206.97
2023-02-15T05:49:18.567Z,2707.75
2023-02-15T05:50:22.172Z,2127.66
2023-02-15T05:51:25.531Z,2489.59
2023-02-15T05:52:28.653Z,2549.13
2023-02-15T05:53:34.541Z,1252.63
2023-02-15T05:54:37.662Z,2717.69
2023-02-15T05:55:41.497Z,2192.09
2023-02-15T05:56:44.866Z,3000.31
2023-02-15T05:57:47.863Z,3044.94
2023-02-15T05:58:50.869Z,3218.50
2023-02-15T05:59:53.983Z,2264.00
2023-02-15T06:00:57.112Z,2445.00
2023-02-15T06:01:59.912Z,3015.38
2023-02-15T06:03:02.769Z,4000.16
2023-02-15T06:04:05.631Z,4295.53
2023-02-15T06:05:08.992Z,4521.38
2023-02-15T06:06:12.263Z,5025.19
2023-02-15T06:07:14.879Z,5816.72
2023-02-15T06:08:17.566Z,5861.13
2023-02-15T06:09:20.928Z,5709.44
2023-02-15T06:10:23.574Z,5530.53
2023-02-15T06:11:26.286Z,5324.50
2023-02-15T06:12:29.048Z,5143.22
2023-02-15T06:13:32.297Z,4969.81
2023-02-15T06:14:34.931Z,5036.84
2023-02-15T06:15:37.637Z,5257.75
2023-02-15T06:16:40.457Z,5366.91
2023-02-15T06:17:43.614Z,4855.91
2023-02-15T06:18:46.155Z,4687.44
2023-02-15T06:19:48.778Z,5210.97
2023-02-15T06:20:51.864Z,5327.53
2023-02-15T06:21:54.505Z,5526.03
2023-02-15T06:22:57.071Z,5511.25
2023-02-15T06:24:00.447Z,5312.75
2023-02-15T06:25:03.396Z,5630.41
2023-02-15T06:26:06.032Z,5754.19
2023-02-15T06:27:08.671Z,5362.34
2023-02-15T06:28:11.318Z,5273.09
2023-02-15T06:29:14.072Z,5019.97
2023-02-15T06:30:16.919Z,4479.16
2023-02-15T06:31:19.704Z,5067.09
2023-02-15T06:32:22.397Z,5074.25
2023-02-15T06:33:25.144Z,5061.69
2023-02-15T06:34:27.911Z,4793.66
2023-02-15T06:35:30.587Z,4949.72
2023-02-15T06:36:33.309Z,4463.44
2023-02-15T06:37:36.548Z,4324.53
2023-02-15T06:38:39.201Z,4141.13
2023-02-15T06:39:41.933Z,4354.44
2023-02-15T06:40:44.591Z,4607.28
2023-02-15T06:41:47.118Z,4614.63
2023-02-15T06:42:49.757Z,4557.47
2023-02-15T06:43:52.639Z,4383.59
2023-02-15T06:44:55.278Z,4254.50
2023-02-15T06:45:58.092Z,3674.28
2023-02-15T06:47:00.553Z,3374.31
2023-02-15T06:48:03.081Z,2945.63
2023-02-15T06:49:05.612Z,2608.53
2023-02-15T06:50:08.958Z,1175.94
2023-02-15T06:51:11.601Z,1493.09
2023-02-15T06:52:14.396Z,1493.00
2023-02-15T06:53:17.122Z,1492.94
2023-02-15T06:54:19.758Z,1634.16
2023-02-15T06:55:22.280Z,1810.09
2023-02-15T06:56:24.800Z,2956.03
2023-02-15T06:57:27.341Z,3338.16
2023-02-15T06:58:30.336Z,3100.03
2023-02-15T06:59:32.968Z,4326.06
2023-02-15T07:00:35.485Z,4333.66
2023-02-15T07:01:38.419Z,4728.59
2023-02-15T07:02:41.264Z,4753.78
2023-02-15T07:03:43.893Z,5474.09
2023-02-15T07:04:46.595Z,5923.88
2023-02-15T07:05:50.612Z,6219.69
2023-02-15T07:06:54.163Z,6486.59
2023-02-15T07:07:56.979Z,6897.44
2023-02-15T07:08:59.501Z,7434.88
2023-02-15T07:10:02.170Z,7813.75
2023-02-15T07:11:24.699Z,7257.41
2023-02-15T07:12:42.589Z,8925.53
2023-02-15T07:13:45.473Z,9240.31
2023-02-15T07:14:48.105Z,9142.09
2023-02-15T07:15:51.493Z,7545.66
2023-02-15T07:16:54.105Z,6934.47
2023-02-15T07:17:58.669Z,5277.00
2023-02-15T07:19:01.431Z,7861.94
2023-02-15T07:20:08.508Z,5905.22
2023-02-15T07:21:11.513Z,6264.56
2023-02-15T07:22:14.392Z,5822.75
2023-02-15T07:23:17.400Z,3658.28
2023-02-15T07:24:20.520Z,1748.06
2023-02-15T07:25:23.637Z,2076.84
2023-02-15T07:26:27.128Z,-2017.78
2023-02-15T07:27:30.479Z,-2655.28
2023-02-15T07:28:34.698Z,-5522.72
2023-02-15T07:29:37.811Z,-6481.00
2023-02-15T07:30:41.671Z,-7758.03
2023-02-15T07:31:46.567Z,-9035.78
2023-02-15T07:33:08.288Z,-10314.47
2023-02-15T07:34:11.533Z,-11595.03
2023-02-15T07:35:14.652Z,-12555.63
2023-02-15T07:36:17.893Z,-13514.56
2023-02-15T07:37:21.019Z,-13835.47
2023-02-15T07:38:25.580Z,-16066.00
2023-02-15T07:39:28.819Z,-17024.88
2023-02-15T07:40:31.995Z,-18307.34
2023-02-15T07:41:35.186Z,-18627.13
2023-02-15T07:42:38.309Z,-19591.22
2023-02-15T07:43:43.726Z,-20229.19
2023-02-15T07:44:47.438Z,-20232.72
2023-02-15T07:45:50.550Z,-20234.38
2023-02-15T07:46:53.950Z,-20237.53
2023-02-15T07:47:57.162Z,-20247.50
2023-02-15T07:49:00.288Z,-20254.31
2023-02-15T07:50:03.755Z,-20259.13
2023-02-15T07:51:10.246Z,-20263.91
2023-02-15T07:52:13.601Z,-20271.13
2023-02-15T07:53:16.970Z,-20283.13
2023-02-15T07:54:20.204Z,-20289.75
2023-02-15T07:55:23.566Z,-20296.97
2023-02-15T07:56:27.056Z,-20291.59
2023-02-15T07:57:30.288Z,-20294.56
2023-02-15T07:58:52.319Z,-20295.47
2023-02-15T07:59:55.261Z,-20318.19
2023-02-15T08:00:58.380Z,-20321.50
2023-02-15T08:02:01.270Z,-16808.44
2023-02-15T08:03:16.055Z,-13292.25
2023-02-15T08:04:19.381Z,-1413.16
2023-02-15T08:05:22.383Z,4380.06
2023-02-15T08:06:28.268Z,9867.22
2023-02-15T08:07:30.913Z,18928.38
2023-02-15T08:08:36.668Z,38094.97
2023-02-15T08:09:39.317Z,78361.28
2023-02-15T08:11:00.846Z,146124.44
2023-02-15T08:12:04.285Z,147375.72
2023-02-15T08:13:06.918Z,147502.72
2023-02-15T08:14:16.460Z,147501.47
2023-02-15T08:15:18.967Z,147548.69
2023-02-15T08:16:43.016Z,147695.16
2023-02-15T08:17:45.686Z,147712.13
2023-02-15T08:18:48.808Z,147764.22
2023-02-15T08:19:51.493Z,147817.44
2023-02-15T08:20:54.253Z,147954.34
2023-02-15T08:21:59.420Z,148023.41
2023-02-15T08:23:02.016Z,148174.91
2023-02-15T08:24:05.540Z,148205.22
2023-02-15T08:25:08.297Z,148254.97
2023-02-15T08:26:11.148Z,148241.59
2023-02-15T08:27:13.830Z,148028.31
2023-02-15T08:28:16.431Z,148077.97
2023-02-15T08:29:22.473Z,148077.97
2023-02-15T08:30:25.009Z,148126.47
2023-02-15T08:31:28.841Z,148212.50
2023-02-15T08:32:31.553Z,148214.91
2023-02-15T08:33:35.276Z,148234.34
2023-02-15T08:34:41.307Z,148257.38
2023-02-15T08:35:44.066Z,148332.59
2023-02-15T08:36:46.950Z,148359.28
2023-02-15T08:37:49.728Z,148376.25
2023-02-15T08:38:52.479Z,148474.50
2023-02-15T08:39:55.130Z,148451.47
2023-02-15T08:40:57.751Z,148558.28
2023-02-15T08:42:00.519Z,148616.53
2023-02-15T08:43:03.156Z,148589.84
2023-02-15T08:44:08.796Z,148757.34
2023-02-15T08:45:11.551Z,148699.06
2023-02-15T08:46:15.877Z,148703.91
2023-02-15T08:47:18.519Z,148645.66
2023-02-15T08:48:21.172Z,148745.22
2023-02-15T08:49:23.918Z,148564.34
2023-02-15T08:50:26.678Z,148591.03
2023-02-15T08:51:32.081Z,148521.84
2023-02-15T08:52:34.596Z,148600.75
2023-02-15T08:53:37.841Z,148626.22
2023-02-15T08:54:40.368Z,148629.88
2023-02-15T08:55:42.878Z,148764.59
2023-02-15T08:56:46.248Z,148747.63
2023-02-15T08:57:49.237Z,148797.38
2023-02-15T08:58:51.884Z,148745.22
2023-02-15T08:59:56.078Z,148872.72
2023-02-15T09:00:59.809Z,148895.81
2023-02-15T09:02:04.037Z,148927.38
2023-02-15T09:03:06.537Z,148822.91
2023-02-15T09:04:10.243Z,148854.53
2023-02-15T09:05:12.771Z,148890.94
2023-02-15T09:06:16.609Z,148871.50
2023-02-15T09:07:19.988Z,148882.47
2023-02-15T09:08:22.500Z,148878.81
2023-02-15T09:09:25.144Z,148869.06
2023-02-15T09:10:27.780Z,148843.59
2023-02-15T09:11:34.620Z,148826.53
2023-02-15T09:12:37.141Z,148877.63
2023-02-15T09:13:40.747Z,148923.75
2023-02-15T09:14:43.387Z,148873.97
2023-02-15T09:15:46.274Z,148835.06
2023-02-15T09:16:50.910Z,148802.25
2023-02-15T09:17:54.327Z,148696.63
2023-02-15T09:19:02.483Z,148867.88
2023-02-15T09:20:05.840Z,148827.75
2023-02-15T09:21:11.474Z,148951.69
2023-02-15T09:22:14.117Z,148952.91
2023-02-15T09:23:26.900Z,149034.28
2023-02-15T09:24:33.925Z,148944.41
2023-02-15T09:25:36.800Z,148952.91
2023-02-15T09:26:42.608Z,148966.25
2023-02-15T09:27:45.441Z,148869.06
2023-02-15T09:28:50.618Z,148980.84
2023-02-15T09:29:53.757Z,149125.47
2023-02-15T09:30:57.268Z,149107.25
2023-02-15T09:32:00.495Z,149119.41
2023-02-15T09:33:03.688Z,148980.84
2023-02-15T09:34:06.930Z,149039.19
2023-02-15T09:35:10.052Z,148958.97
2023-02-15T09:36:25.298Z,148804.66
2023-02-15T09:37:28.542Z,148801.03
2023-02-15T09:38:31.899Z,148774.31
2023-02-15T09:39:44.020Z,148931.03
2023-02-15T09:41:06.581Z,148968.66
2023-02-15T09:42:26.384Z,148971.09
2023-02-15T09:43:55.545Z,149135.19
2023-02-15T09:45:19.314Z,149240.97
2023-02-15T09:46:38.631Z,149399.09
2023-02-15T09:48:28.912Z,149493.91
2023-02-15T09:49:53.173Z,149339.47
2023-02-15T09:51:14.518Z,149423.38
2023-02-15T09:52:38.400Z,149355.28
2023-02-15T09:53:57.142Z,149407.56
2023-02-15T09:55:21.127Z,149238.53
2023-02-15T09:56:33.616Z,149392.97
2023-02-15T09:57:49.451Z,149603.47
2023-02-15T09:58:52.826Z,149687.41
2023-02-15T10:00:04.102Z,149647.28
2023-02-15T10:01:26.355Z,149712.97
2023-02-15T10:02:50.780Z,149820.13
2023-02-15T10:04:20.626Z,149855.44
2023-02-15T10:05:47.305Z,149973.56
2023-02-15T10:07:02.911Z,150217.28
2023-02-15T10:08:32.436Z,150200.25
2023-02-15T10:10:06.280Z,150190.53
2023-02-15T10:11:38.555Z,150085.66
2023-02-15T10:12:59.684Z,150032.09
2023-02-15T10:14:28.966Z,150258.75
2023-02-15T10:15:42.162Z,150167.31
2023-02-15T10:17:03.571Z,150071.06
2023-02-15T10:18:42.169Z,150044.25
2023-02-15T10:20:23.025Z,149991.91
2023-02-15T10:21:44.976Z,149934.63
2023-02-15T10:23:09.460Z,149822.56
2023-02-15T10:24:17.985Z,149879.81
2023-02-15T10:25:26.617Z,149929.75
2023-02-15T10:26:32.019Z,150015.00
2023-02-15T10:27:45.580Z,150134.41
2023-02-15T10:28:57.945Z,150227.06
2023-02-15T10:30:02.400Z,150205.13
2023-02-15T10:31:31.492Z,150114.91
2023-02-15T10:32:44.038Z,150196.59
2023-02-15T10:33:46.916Z,150153.94
2023-02-15T10:35:02.527Z,150334.31
2023-02-15T10:36:26.024Z,150270.94
2023-02-15T10:38:03.702Z,150295.31
2023-02-15T10:39:21.465Z,150434.31
2023-02-15T10:40:30.232Z,150425.81
2023-02-15T10:41:57.719Z,150480.63
2023-02-15T10:43:18.954Z,150572.16
2023-02-15T10:44:36.837Z,150578.25
2023-02-15T10:45:45.631Z,150633.16
2023-02-15T10:47:07.914Z,150703.88
2023-02-15T10:48:18.002Z,150697.78
2023-02-15T10:50:15.355Z,150753.97
2023-02-15T10:51:56.513Z,150836.94
2023-02-15T10:53:07.915Z,150884.53
2023-02-15T10:54:44.518Z,150825.97
2023-02-15T10:56:08.636Z,150840.59
2023-02-15T10:57:32.158Z,150802.75
2023-02-15T10:59:09.722Z,150666.06
2023-02-15T11:00:25.213Z,150633.16
2023-02-15T11:01:35.561Z,150585.59
2023-02-15T11:02:55.573Z,150539.19
2023-02-15T11:04:35.488Z,150556.28
2023-02-15T11:05:52.094Z,150385.56
2023-02-15T11:06:58.827Z,150508.69
2023-02-15T11:08:07.469Z,150422.16
2023-02-15T11:09:17.292Z,150363.56
2023-02-15T11:10:47.531Z,150470.88
2023-02-15T11:11:54.497Z,150427.03
2023-02-15T11:12:59.299Z,150518.47
2023-02-15T11:14:14.309Z,150680.75
2023-02-15T11:16:07.647Z,150537.97
2023-02-15T11:17:17.906Z,150733.19
2023-02-15T11:18:33.879Z,150937.06
2023-02-15T11:19:46.016Z,150894.31
2023-02-15T11:21:01.119Z,150945.63
2023-02-15T11:22:06.868Z,150711.25
2023-02-15T11:23:19.467Z,150825.97
2023-02-15T11:24:27.037Z,150556.28
2023-02-15T11:25:32.929Z,150700.22
2023-02-15T11:26:42.516Z,150866.22
2023-02-15T11:27:49.603Z,150866.22
2023-02-15T11:29:19.720Z,151011.53
2023-02-15T11:30:25.890Z,150835.72
2023-02-15T11:31:43.735Z,150793.00
2023-02-15T11:32:51.407Z,150803.97
2023-02-15T11:34:05.209Z,150858.91
2023-02-15T11:35:14.088Z,150707.53
2023-02-15T11:36:22.972Z,150832.06
2023-02-15T11:37:32.822Z,150973.66
2023-02-15T11:38:37.973Z,150866.22
2023-02-15T11:39:41.817Z,150828.41
2023-02-15T11:40:50.952Z,150700.22
2023-02-15T11:41:56.832Z,150638.00
2023-02-15T11:43:12.905Z,150519.69
2023-02-15T11:44:19.508Z,150400.19
2023-02-15T11:45:35.723Z,150227.06
2023-02-15T11:46:39.294Z,150201.47
2023-02-15T11:47:42.428Z,150208.78
2023-02-15T11:48:45.554Z,150239.25
2023-02-15T11:49:48.671Z,150174.63
2023-02-15T11:50:51.912Z,150273.38
2023-02-15T11:51:56.715Z,150041.81
2023-02-15T11:53:03.919Z,150041.81
2023-02-15T11:54:07.160Z,150036.97
2023-02-15T11:55:21.682Z,150110.03
2023-02-15T11:56:26.614Z,150206.34
2023-02-15T11:57:33.448Z,149918.75
2023-02-15T11:58:42.936Z,149924.88
2023-02-15T11:59:55.051Z,149972.34
2023-02-15T12:01:09.451Z,149840.84
2023-02-15T12:02:22.994Z,149965.06
2023-02-15T12:03:38.380Z,150007.72
2023-02-15T12:04:46.295Z,150119.81
2023-02-15T12:05:54.819Z,150155.16
2023-02-15T12:07:23.863Z,150335.53
2023-02-15T12:08:40.910Z,150385.56
2023-02-15T12:10:13.072Z,150190.53
2023-02-15T12:11:42.473Z,150131.97
2023-02-15T12:12:45.350Z,150074.72
2023-02-15T12:14:01.368Z,150036.97
2023-02-15T12:15:07.438Z,150082.00
2023-02-15T12:16:14.110Z,150164.88
2023-02-15T12:17:17.996Z,150242.91
2023-02-15T12:18:40.200Z,150329.44
2023-02-15T12:19:43.013Z,150353.84
2023-02-15T12:20:45.721Z,150402.63
2023-02-15T12:21:53.530Z,150485.56
2023-02-15T12:23:03.845Z,150524.56
2023-02-15T12:24:25.984Z,150595.34
2023-02-15T12:25:36.853Z,150709.97
2023-02-15T12:26:39.538Z,150651.47
2023-02-15T12:27:44.656Z,150612.38
2023-02-15T12:28:53.416Z,150645.31
2023-02-15T12:30:28.043Z,150466.03
2023-02-15T12:31:41.560Z,150495.28
2023-02-15T12:33:04.024Z,150530.66
2023-02-15T12:34:26.308Z,150444.06
2023-02-15T12:35:33.660Z,150483.13
2023-02-15T12:36:47.462Z,150390.44
2023-02-15T12:37:59.105Z,150170.97
2023-02-15T12:39:15.516Z,150351.41
2023-02-15T12:40:36.762Z,150547.75
2023-02-15T12:41:48.185Z,150444.06
2023-02-15T12:42:50.827Z,150270.94
2023-02-15T12:44:20.132Z,150444.06
2023-02-15T12:45:31.861Z,150346.50
2023-02-15T12:46:38.549Z,150418.50
2023-02-15T12:47:41.243Z,150519.69
2023-02-15T12:48:43.871Z,150602.66
2023-02-15T12:50:23.864Z,150768.59
2023-02-15T12:51:26.480Z,150778.41
2023-02-15T12:52:29.112Z,150735.59
2023-02-15T12:53:34.538Z,150649.03
2023-02-15T12:54:41.207Z,150722.22
2023-02-15T12:55:56.135Z,150719.78
2023-02-15T12:57:00.124Z,150597.78
2023-02-15T12:58:26.388Z,150434.31
2023-02-15T12:59:29.146Z,150258.75
2023-02-15T13:00:33.034Z,150309.91
2023-02-15T13:01:35.808Z,150378.19
2023-02-15T13:02:45.805Z,150327.00
2023-02-15T13:04:05.495Z,150161.22
2023-02-15T13:05:32.363Z,150119.81
2023-02-15T13:06:37.768Z,150114.91
2023-02-15T13:07:47.009Z,149815.28
2023-02-15T13:08:53.256Z,149825.03
2023-02-15T13:09:55.795Z,149786.06
2023-02-15T13:11:02.668Z,149784.84
2023-02-15T13:12:27.841Z,149708.13
2023-02-15T13:13:33.212Z,149691.06
2023-02-15T13:14:37.304Z,149526.75
2023-02-15T13:15:48.216Z,149535.31